createdAt,value
2022-08-17T00:02:26.673Z,83.90
2022-08-17T00:04:56.076Z,83.70
2022-08-17T00:07:23.301Z,83.60
2022-08-17T00:09:50.272Z,83.50
2022-08-17T00:12:43.178Z,83.60
2022-08-17T00:15:05.058Z,83.50
2022-08-17T00:17:32.643Z,83.80
2022-08-17T00:19:59.996Z,83.90
2022-08-17T00:22:32.942Z,84.50
2022-08-17T00:25:06.003Z,83.60
2022-08-17T00:27:33.600Z,83.90
2022-08-17T00:30:00.442Z,83.70
2022-08-17T00:33:15.410Z,83.70
2022-08-17T00:35:23.228Z,84.10
2022-08-17T00:37:51.378Z,84.10
2022-08-17T00:40:19.303Z,84.60
2022-08-17T00:42:47.064Z,84.20
2022-08-17T00:45:16.343Z,84.20
2022-08-17T00:47:44.057Z,84.00
2022-08-17T00:50:12.253Z,84.50
2022-08-17T00:52:42.117Z,84.20
2022-08-17T00:55:09.423Z,84.50
2022-08-17T00:57:41.418Z,84.50
2022-08-17T01:00:14.356Z,84.40
2022-08-17T01:02:43.270Z,84.50
2022-08-17T01:05:12.543Z,84.60
2022-08-17T01:07:42.137Z,84.30
2022-08-17T01:11:00.380Z,84.20
2022-08-17T01:12:58.633Z,84.40
2022-08-17T01:15:25.528Z,84.60
2022-08-17T01:17:52.248Z,85.10
2022-08-17T01:20:19.097Z,84.80
2022-08-17T01:22:45.804Z,84.60
2022-08-17T01:25:13.145Z,84.90
2022-08-17T01:27:41.073Z,85.00
2022-08-17T01:30:57.852Z,84.50
2022-08-17T01:33:04.366Z,84.90
2022-08-17T01:35:31.231Z,84.60
2022-08-17T01:37:57.889Z,85.00
2022-08-17T01:40:31.237Z,85.20
2022-08-17T01:43:07.307Z,84.90
2022-08-17T01:45:38.626Z,84.90
2022-08-17T01:48:05.364Z,85.00
2022-08-17T01:50:34.890Z,84.90
2022-08-17T01:53:07.504Z,85.50
2022-08-17T01:55:38.913Z,85.30
2022-08-17T01:58:09.646Z,85.30
2022-08-17T02:00:59.380Z,85.30
2022-08-17T02:03:25.791Z,85.60
2022-08-17T02:05:53.276Z,85.10
2022-08-17T02:08:20.849Z,85.70
2022-08-17T02:11:08.957Z,85.20
2022-08-17T02:13:38.446Z,85.40
2022-08-17T02:16:05.169Z,85.30
2022-08-17T02:18:31.886Z,85.60
2022-08-17T02:20:58.578Z,85.20
2022-08-17T02:23:26.335Z,85.60
2022-08-17T02:25:53.808Z,85.20
2022-08-17T02:28:20.506Z,85.30
2022-08-17T02:30:59.699Z,85.60
2022-08-17T02:33:42.135Z,85.20
2022-08-17T02:36:10.750Z,85.80
2022-08-17T02:38:38.145Z,85.80
2022-08-17T02:41:05.155Z,85.70
2022-08-17T02:43:32.008Z,85.50
2022-08-17T02:45:58.735Z,85.70
2022-08-17T02:48:30.507Z,86.00
2022-08-17T02:50:58.032Z,85.90
2022-08-17T02:53:24.746Z,85.90
2022-08-17T02:55:52.711Z,85.80
2022-08-17T02:58:34.991Z,85.90
2022-08-17T03:01:04.651Z,86.10
2022-08-17T03:03:32.685Z,85.70
2022-08-17T03:05:59.374Z,86.00
2022-08-17T03:08:26.213Z,85.80
2022-08-17T03:10:56.370Z,85.70
2022-08-17T03:13:23.152Z,85.80
2022-08-17T03:15:50.589Z,86.10
2022-08-17T03:18:25.469Z,86.20
2022-08-17T03:20:54.071Z,86.30
2022-08-17T03:23:23.963Z,86.20
2022-08-17T03:25:53.336Z,86.00
2022-08-17T03:28:20.963Z,86.00
2022-08-17T03:30:47.675Z,86.10
2022-08-17T03:33:14.704Z,86.10
2022-08-17T03:35:41.744Z,86.60
2022-08-17T03:38:11.969Z,86.40
2022-08-17T03:40:56.594Z,86.60
2022-08-17T03:43:26.979Z,86.30
2022-08-17T03:46:34.045Z,86.10
2022-08-17T03:49:17.060Z,86.90
2022-08-17T03:52:02.120Z,86.60
2022-08-17T03:54:47.969Z,86.50
2022-08-17T03:57:14.669Z,86.60
2022-08-17T03:59:41.490Z,86.40
2022-08-17T04:02:10.056Z,86.30
2022-08-17T04:04:37.219Z,86.50
2022-08-17T04:07:04.191Z,86.40
2022-08-17T04:09:32.058Z,86.60
2022-08-17T04:12:02.289Z,86.70
2022-08-17T04:14:36.349Z,86.50
2022-08-17T04:17:20.019Z,86.20
2022-08-17T04:19:46.966Z,86.80
2022-08-17T04:22:30.386Z,87.30
2022-08-17T04:24:59.376Z,87.10
2022-08-17T04:27:26.092Z,86.60
2022-08-17T04:29:55.507Z,86.30
2022-08-17T04:32:58.385Z,86.60
2022-08-17T04:35:10.062Z,87.00
2022-08-17T04:37:36.828Z,86.90
2022-08-17T04:40:22.646Z,86.50
2022-08-17T04:43:07.179Z,86.80
2022-08-17T04:45:33.866Z,87.00
2022-08-17T04:48:01.131Z,86.50
2022-08-17T04:50:28.036Z,88.60
2022-08-17T04:52:54.999Z,90.20
2022-08-17T04:55:26.536Z,90.80
2022-08-17T04:58:03.038Z,90.90
2022-08-17T05:00:29.926Z,91.20
2022-08-17T05:02:56.736Z,91.60
2022-08-17T05:05:29.191Z,92.30
2022-08-17T05:08:03.462Z,92.50
2022-08-17T05:10:33.973Z,92.40
2022-08-17T05:13:03.699Z,92.20
2022-08-17T05:15:33.183Z,91.90
2022-08-17T05:18:04.107Z,92.10
2022-08-17T05:20:31.134Z,91.80
2022-08-17T05:22:59.278Z,92.30
2022-08-17T05:25:27.632Z,91.90
2022-08-17T05:27:57.626Z,92.00
2022-08-17T05:30:25.523Z,91.60
2022-08-17T05:32:53.142Z,91.00
2022-08-17T05:35:20.234Z,90.60
2022-08-17T05:37:46.951Z,90.20
2022-08-17T05:40:14.909Z,90.00
2022-08-17T05:42:41.711Z,90.20
2022-08-17T05:45:09.078Z,90.10
2022-08-17T05:47:36.694Z,90.40
2022-08-17T05:50:09.371Z,90.00
2022-08-17T05:52:50.928Z,89.30
2022-08-17T05:55:20.510Z,88.90
2022-08-17T05:57:56.611Z,89.70
2022-08-17T06:00:30.902Z,88.80
2022-08-17T06:03:05.372Z,88.60
2022-08-17T06:05:38.120Z,88.80
2022-08-17T06:08:25.925Z,88.00
2022-08-17T06:11:01.461Z,87.10
2022-08-17T06:13:36.038Z,87.30
2022-08-17T06:16:26.179Z,87.80
2022-08-17T06:19:10.995Z,87.70
2022-08-17T06:21:39.583Z,87.60
2022-08-17T06:24:18.209Z,87.90
2022-08-17T06:26:45.765Z,88.60
2022-08-17T06:29:25.180Z,89.30
2022-08-17T06:31:52.066Z,89.50
2022-08-17T06:34:20.840Z,89.40
2022-08-17T06:36:56.531Z,89.20
2022-08-17T06:39:44.618Z,89.50
2022-08-17T06:43:05.025Z,90.10
2022-08-17T06:45:31.316Z,90.10
2022-08-17T06:48:18.480Z,89.40
2022-08-17T06:50:47.657Z,90.00
2022-08-17T06:53:40.482Z,90.60
2022-08-17T06:56:07.170Z,90.70
2022-08-17T06:58:35.643Z,90.50
2022-08-17T07:01:15.271Z,90.70
2022-08-17T07:03:54.573Z,90.80
2022-08-17T07:06:23.170Z,90.70
2022-08-17T07:08:49.870Z,90.50
2022-08-17T07:11:19.286Z,90.60
2022-08-17T07:14:04.628Z,90.80
2022-08-17T07:16:35.051Z,90.90
2022-08-17T07:19:01.946Z,90.90
2022-08-17T07:21:29.397Z,90.90
2022-08-17T07:24:01.306Z,91.00
2022-08-17T07:26:28.057Z,90.70
2022-08-17T07:28:56.288Z,90.50
2022-08-17T07:31:24.967Z,90.50
2022-08-17T07:34:00.450Z,90.50
2022-08-17T07:36:30.272Z,90.70
2022-08-17T07:38:58.021Z,90.70
2022-08-17T07:41:25.539Z,90.70
2022-08-17T07:44:13.976Z,90.80
2022-08-17T07:47:07.655Z,90.90
2022-08-17T07:49:37.924Z,90.90
2022-08-17T07:52:24.917Z,91.10
2022-08-17T07:54:56.631Z,90.90
2022-08-17T07:57:30.191Z,91.00
2022-08-17T08:00:01.666Z,91.00
2022-08-17T08:02:35.581Z,91.10
2022-08-17T08:05:14.913Z,91.20
2022-08-17T08:08:03.154Z,91.20
2022-08-17T08:10:36.029Z,91.20
2022-08-17T08:13:04.246Z,91.00
2022-08-17T08:15:54.792Z,90.80
2022-08-17T08:18:53.563Z,91.20
2022-08-17T08:21:18.365Z,91.00
2022-08-17T08:23:48.034Z,90.90
2022-08-17T08:26:28.736Z,90.90
2022-08-17T08:28:55.380Z,90.90
2022-08-17T08:31:30.701Z,90.90
2022-08-17T08:34:44.490Z,91.00
2022-08-17T08:37:17.816Z,90.70
2022-08-17T08:39:57.027Z,90.80
2022-08-17T08:42:27.012Z,90.80
2022-08-17T08:45:12.291Z,90.90
2022-08-17T08:47:40.762Z,90.70
2022-08-17T08:50:37.133Z,90.90
2022-08-17T08:53:03.734Z,91.10
2022-08-17T08:55:35.513Z,91.10
2022-08-17T08:58:08.440Z,90.80
2022-08-17T09:00:56.774Z,90.60
2022-08-17T09:03:50.906Z,90.50
2022-08-17T09:06:39.492Z,90.40
2022-08-17T09:09:09.645Z,90.50
2022-08-17T09:12:01.112Z,90.70
2022-08-17T09:14:47.133Z,90.30
2022-08-17T09:17:20.846Z,90.60
2022-08-17T09:20:02.108Z,90.60
2022-08-17T09:22:43.055Z,90.20
2022-08-17T09:25:18.607Z,90.20
2022-08-17T09:27:53.013Z,90.20
2022-08-17T09:30:21.831Z,90.90
2022-08-17T09:32:55.188Z,90.70
2022-08-17T09:35:25.138Z,90.20
2022-08-17T09:38:09.262Z,90.60
2022-08-17T09:40:40.523Z,90.40
2022-08-17T09:43:16.474Z,90.20
2022-08-17T09:45:46.022Z,90.80
2022-08-17T09:48:27.545Z,90.60
2022-08-17T09:51:05.075Z,90.30
2022-08-17T09:53:33.494Z,90.50
2022-08-17T09:56:10.380Z,90.70
2022-08-17T09:58:47.589Z,90.70
2022-08-17T10:01:24.938Z,90.10
2022-08-17T10:03:59.264Z,90.00
2022-08-17T10:06:31.719Z,90.20
2022-08-17T10:09:07.466Z,90.30
2022-08-17T10:12:17.088Z,90.40
2022-08-17T10:14:46.994Z,90.40
2022-08-17T10:17:42.024Z,90.50
2022-08-17T10:20:15.151Z,90.30
2022-08-17T10:23:29.981Z,90.80
2022-08-17T10:26:15.338Z,90.30
2022-08-17T10:28:44.996Z,90.40
2022-08-17T10:31:34.321Z,90.40
2022-08-17T10:34:01.766Z,90.20
2022-08-17T10:36:55.049Z,90.60
2022-08-17T10:39:21.764Z,90.10
2022-08-17T10:41:50.762Z,90.10
2022-08-17T10:44:41.290Z,91.00
2022-08-17T10:47:15.020Z,90.10
2022-08-17T10:49:50.247Z,90.30
2022-08-17T10:52:19.602Z,90.40
2022-08-17T10:55:14.456Z,90.40
2022-08-17T10:57:47.802Z,90.40
2022-08-17T11:00:35.157Z,90.20
2022-08-17T11:03:02.333Z,90.60
2022-08-17T11:05:34.065Z,90.20
2022-08-17T11:08:01.709Z,90.50
2022-08-17T11:10:34.452Z,90.40
2022-08-17T11:13:10.980Z,90.40
2022-08-17T11:15:52.764Z,90.60
2022-08-17T11:18:38.201Z,90.30
2022-08-17T11:21:04.871Z,90.20
2022-08-17T11:23:53.028Z,90.20
2022-08-17T11:26:25.937Z,90.30
2022-08-17T11:28:56.359Z,90.60
2022-08-17T11:31:37.794Z,90.40
2022-08-17T11:34:14.456Z,90.50
2022-08-17T11:36:45.394Z,90.60
2022-08-17T11:39:14.953Z,90.50
2022-08-17T11:41:48.917Z,90.50
2022-08-17T11:44:38.378Z,90.70
2022-08-17T11:47:29.768Z,90.80
2022-08-17T11:50:15.735Z,90.30
2022-08-17T11:52:42.408Z,90.60
2022-08-17T11:55:37.500Z,90.90
2022-08-17T11:58:26.021Z,90.40
2022-08-17T12:00:58.986Z,90.60
2022-08-17T12:03:34.640Z,90.40
2022-08-17T12:06:04.263Z,90.30
2022-08-17T12:08:33.773Z,90.40
2022-08-17T12:11:04.212Z,90.60
2022-08-17T12:13:38.700Z,90.30
2022-08-17T12:16:07.254Z,90.50
2022-08-17T12:18:37.625Z,90.00
2022-08-17T12:21:15.370Z,90.60
2022-08-17T12:23:51.983Z,90.40
2022-08-17T12:26:20.938Z,91.00
2022-08-17T12:28:49.181Z,90.50
2022-08-17T12:31:17.063Z,90.60
2022-08-17T12:33:44.496Z,90.30
2022-08-17T12:36:14.961Z,90.00
2022-08-17T12:38:49.050Z,88.60
2022-08-17T12:41:29.230Z,90.30
2022-08-17T12:44:06.679Z,89.10
2022-08-17T12:46:44.742Z,89.90
2022-08-17T12:49:12.738Z,90.10
2022-08-17T12:51:42.661Z,90.00
2022-08-17T12:54:22.551Z,90.20
2022-08-17T12:56:49.313Z,90.30
2022-08-17T12:59:18.862Z,90.50
2022-08-17T13:01:58.455Z,90.00
2022-08-17T13:04:29.462Z,90.60
2022-08-17T13:06:59.870Z,90.20
2022-08-17T13:09:35.241Z,90.20
2022-08-17T13:12:07.003Z,90.40
2022-08-17T13:14:35.351Z,90.90
2022-08-17T13:17:06.324Z,90.50
2022-08-17T13:19:40.802Z,90.50
2022-08-17T13:22:10.798Z,90.10
2022-08-17T13:24:38.050Z,90.30
2022-08-17T13:27:08.684Z,90.30
2022-08-17T13:29:40.145Z,89.30
2022-08-17T13:32:11.546Z,90.30
2022-08-17T13:35:11.560Z,89.40
2022-08-17T13:37:34.267Z,89.70
2022-08-17T13:40:01.173Z,90.40
2022-08-17T13:42:30.907Z,90.00
2022-08-17T13:44:57.998Z,90.10
2022-08-17T13:47:25.144Z,90.30
2022-08-17T13:49:51.976Z,90.30
2022-08-17T13:52:41.348Z,90.30
2022-08-17T13:55:18.442Z,89.80
2022-08-17T13:57:49.565Z,90.00
2022-08-17T14:00:32.321Z,89.30
2022-08-17T14:03:01.250Z,89.20
2022-08-17T14:05:28.613Z,89.30
2022-08-17T14:08:02.150Z,89.40
2022-08-17T14:10:35.825Z,89.90
2022-08-17T14:13:02.788Z,89.50
2022-08-17T14:15:53.947Z,90.00
2022-08-17T14:18:35.480Z,90.10
2022-08-17T14:21:08.292Z,90.00
2022-08-17T14:23:35.554Z,89.70
2022-08-17T14:26:02.801Z,90.10
2022-08-17T14:28:29.484Z,89.30
2022-08-17T14:30:57.002Z,89.00
2022-08-17T14:33:24.671Z,89.50
2022-08-17T14:35:53.597Z,88.60
2022-08-17T14:38:20.655Z,87.90
2022-08-17T14:40:47.983Z,88.90
2022-08-17T14:43:15.920Z,87.50
2022-08-17T14:45:42.970Z,87.70
2022-08-17T14:48:09.847Z,87.70
2022-08-17T14:50:38.384Z,88.10
2022-08-17T14:53:08.678Z,87.00
2022-08-17T14:55:36.821Z,87.30
2022-08-17T14:58:04.159Z,87.70
2022-08-17T15:00:31.487Z,89.10
2022-08-17T15:03:00.022Z,87.70
2022-08-17T15:05:31.271Z,87.60
2022-08-17T15:07:58.616Z,87.30
2022-08-17T15:10:26.061Z,88.00
2022-08-17T15:12:52.857Z,86.90
2022-08-17T15:15:20.026Z,87.30
2022-08-17T15:17:46.804Z,87.40
2022-08-17T15:20:18.408Z,88.10
2022-08-17T15:22:46.814Z,87.30
2022-08-17T15:25:13.817Z,87.30
2022-08-17T15:27:40.678Z,87.40
2022-08-17T15:30:08.504Z,87.50
2022-08-17T15:32:37.926Z,88.20
2022-08-17T15:35:06.738Z,88.30
2022-08-17T15:37:33.482Z,87.40
2022-08-17T15:40:01.149Z,88.60
2022-08-17T15:42:29.777Z,88.70
2022-08-17T15:44:56.632Z,88.00
2022-08-17T15:47:23.409Z,88.10
2022-08-17T15:49:50.928Z,88.80
2022-08-17T15:52:21.586Z,87.60
2022-08-17T15:54:51.069Z,88.80
2022-08-17T15:57:18.099Z,88.50
2022-08-17T15:59:44.842Z,87.80
2022-08-17T16:03:13.420Z,88.80
2022-08-17T16:05:10.126Z,88.50
2022-08-17T16:07:38.358Z,89.40
2022-08-17T16:10:06.351Z,89.20
2022-08-17T16:12:34.583Z,89.00
2022-08-17T16:15:02.561Z,89.60
2022-08-17T16:17:38.824Z,89.90
2022-08-17T16:20:20.029Z,90.50
2022-08-17T16:22:49.511Z,89.90
2022-08-17T16:25:18.902Z,90.00
2022-08-17T16:27:46.322Z,90.00
2022-08-17T16:30:17.359Z,90.20
2022-08-17T16:32:44.601Z,90.50
2022-08-17T16:35:12.577Z,90.60
2022-08-17T16:37:40.423Z,90.90
2022-08-17T16:40:13.964Z,90.50
2022-08-17T16:42:40.987Z,90.70
2022-08-17T16:45:10.476Z,91.30
2022-08-17T16:47:37.932Z,91.50
2022-08-17T16:50:06.397Z,91.50
2022-08-17T16:52:33.676Z,91.50
2022-08-17T16:55:01.706Z,91.50
2022-08-17T16:57:29.164Z,91.30
2022-08-17T16:59:56.352Z,90.70
2022-08-17T17:02:34.717Z,90.60
2022-08-17T17:05:13.394Z,90.40
2022-08-17T17:07:44.988Z,90.20
2022-08-17T17:10:14.180Z,90.20
2022-08-17T17:13:01.041Z,90.10
2022-08-17T17:15:34.593Z,90.30
2022-08-17T17:18:06.737Z,90.20
2022-08-17T17:20:43.455Z,90.10
2022-08-17T17:23:28.274Z,90.00
2022-08-17T17:25:58.014Z,89.60
2022-08-17T17:28:38.309Z,89.80
2022-08-17T17:31:14.774Z,90.20
2022-08-17T17:33:41.607Z,90.30
2022-08-17T17:36:13.239Z,90.90
2022-08-17T17:38:40.786Z,90.40
2022-08-17T17:41:11.127Z,90.50
2022-08-17T17:43:40.558Z,90.30
2022-08-17T17:46:28.694Z,90.90
2022-08-17T17:48:56.802Z,90.60
2022-08-17T17:52:06.281Z,90.50
2022-08-17T17:54:38.881Z,90.50
2022-08-17T17:57:24.731Z,90.60
2022-08-17T17:59:51.473Z,90.60
2022-08-17T18:02:38.875Z,90.90
2022-08-17T18:05:28.617Z,90.80
2022-08-17T18:08:14.128Z,90.60
2022-08-17T18:10:44.849Z,90.50
2022-08-17T18:13:19.419Z,90.70
2022-08-17T18:15:51.353Z,90.50
2022-08-17T18:18:18.130Z,90.50
2022-08-17T18:20:53.354Z,90.30
2022-08-17T18:23:27.735Z,90.20
2022-08-17T18:25:56.466Z,89.80
2022-08-17T18:28:25.561Z,89.80
2022-08-17T18:31:11.201Z,90.10
2022-08-17T18:33:40.409Z,89.70
2022-08-17T18:36:07.459Z,89.60
2022-08-17T18:38:35.774Z,90.00
2022-08-17T18:41:04.575Z,90.00
2022-08-17T18:43:44.126Z,89.70
2022-08-17T18:46:32.967Z,90.00
2022-08-17T18:49:01.510Z,89.30
2022-08-17T18:51:40.044Z,90.00
2022-08-17T18:54:14.385Z,89.60
2022-08-17T18:56:48.880Z,89.70
2022-08-17T18:59:24.953Z,89.50
2022-08-17T19:02:05.094Z,89.30
2022-08-17T19:04:39.836Z,89.30
2022-08-17T19:07:06.600Z,90.40
2022-08-17T19:09:35.503Z,90.20
2022-08-17T19:12:04.048Z,90.00
2022-08-17T19:14:31.136Z,90.20
2022-08-17T19:17:02.599Z,91.60
2022-08-17T19:19:38.160Z,92.50
2022-08-17T19:22:28.924Z,93.30
2022-08-17T19:25:04.654Z,93.90
2022-08-17T19:27:41.972Z,94.50
2022-08-17T19:30:14.357Z,94.60
2022-08-17T19:32:41.269Z,94.70
2022-08-17T19:35:16.700Z,94.60
2022-08-17T19:38:13.157Z,94.60
2022-08-17T19:40:59.121Z,94.90
2022-08-17T19:43:36.897Z,95.10
2022-08-17T19:46:19.881Z,95.60
2022-08-17T19:48:52.903Z,95.80
2022-08-17T19:51:39.491Z,95.70
2022-08-17T19:54:25.524Z,95.60
2022-08-17T19:56:55.714Z,94.60
2022-08-17T19:59:25.480Z,94.80
2022-08-17T20:02:01.305Z,94.50
2022-08-17T20:04:32.466Z,94.50
2022-08-17T20:07:02.396Z,94.60
2022-08-17T20:09:33.609Z,94.30
2022-08-17T20:12:07.109Z,93.90
2022-08-17T20:14:53.612Z,94.20
2022-08-17T20:17:24.809Z,93.90
2022-08-17T20:20:02.183Z,94.10
2022-08-17T20:22:30.768Z,94.10
2022-08-17T20:25:07.090Z,94.00
2022-08-17T20:27:48.389Z,93.90
2022-08-17T20:30:33.400Z,93.50
2022-08-17T20:33:02.241Z,93.50
2022-08-17T20:35:37.227Z,93.20
2022-08-17T20:38:11.081Z,93.10
2022-08-17T20:40:41.424Z,93.00
2022-08-17T20:43:26.709Z,92.60
2022-08-17T20:46:13.056Z,92.50
2022-08-17T20:48:42.965Z,92.70
2022-08-17T20:51:26.063Z,92.80
2022-08-17T20:53:55.753Z,92.70
2022-08-17T20:56:58.025Z,92.70
2022-08-17T20:59:28.589Z,92.60
2022-08-17T21:02:17.742Z,92.40
2022-08-17T21:04:52.927Z,92.10
2022-08-17T21:07:23.359Z,92.00
2022-08-17T21:09:50.906Z,92.10
2022-08-17T21:12:37.547Z,91.90
2022-08-17T21:15:07.031Z,91.60
2022-08-17T21:17:41.639Z,91.40
2022-08-17T21:20:12.859Z,91.50
2022-08-17T21:22:43.585Z,91.70
2022-08-17T21:25:26.327Z,91.40
2022-08-17T21:27:53.147Z,91.40
2022-08-17T21:30:42.647Z,91.50
2022-08-17T21:33:25.162Z,91.80
2022-08-17T21:35:51.909Z,91.40
2022-08-17T21:38:21.554Z,91.80
2022-08-17T21:40:50.445Z,91.40
2022-08-17T21:43:17.324Z,91.60
2022-08-17T21:45:54.666Z,91.70
2022-08-17T21:48:24.149Z,91.40
2022-08-17T21:51:10.541Z,91.40
2022-08-17T21:53:40.437Z,91.60
2022-08-17T21:56:07.734Z,91.60
2022-08-17T21:58:40.670Z,91.80
2022-08-17T22:01:21.011Z,91.80
2022-08-17T22:03:55.683Z,92.10
2022-08-17T22:06:36.534Z,91.40
2022-08-17T22:09:11.661Z,91.80
2022-08-17T22:11:52.613Z,91.90
2022-08-17T22:14:24.084Z,91.70
2022-08-17T22:17:06.456Z,91.60
2022-08-17T22:19:35.453Z,91.80
2022-08-17T22:22:03.982Z,92.10
2022-08-17T22:24:31.095Z,92.00
2022-08-17T22:27:12.529Z,91.80
2022-08-17T22:29:42.649Z,91.50
2022-08-17T22:32:09.504Z,91.60
2022-08-17T22:34:39.296Z,92.10
2022-08-17T22:37:26.711Z,91.50
2022-08-17T22:39:59.091Z,91.90
2022-08-17T22:42:25.862Z,92.10
2022-08-17T22:44:54.094Z,91.60
2022-08-17T22:47:30.788Z,91.60
2022-08-17T22:50:01.578Z,92.00
2022-08-17T22:52:34.502Z,92.10
2022-08-17T22:55:34.352Z,91.90
2022-08-17T22:58:19.920Z,91.70
2022-08-17T23:00:48.643Z,92.00
2022-08-17T23:03:15.424Z,91.80
2022-08-17T23:05:44.928Z,91.90
2022-08-17T23:08:12.756Z,92.30
2022-08-17T23:10:41.366Z,92.00
2022-08-17T23:13:10.499Z,92.20
2022-08-17T23:15:39.380Z,92.00
2022-08-17T23:18:06.439Z,92.10
2022-08-17T23:20:37.700Z,92.40
2022-08-17T23:23:06.700Z,91.60
2022-08-17T23:25:34.276Z,91.60
2022-08-17T23:28:02.758Z,92.10
2022-08-17T23:30:30.603Z,91.70
2022-08-17T23:33:02.396Z,91.60
2022-08-17T23:35:39.027Z,91.50
2022-08-17T23:38:11.434Z,91.60
2022-08-17T23:40:39.211Z,91.60
2022-08-17T23:43:15.380Z,91.60
2022-08-17T23:45:50.928Z,91.70
2022-08-17T23:48:28.670Z,91.60
2022-08-17T23:51:04.754Z,91.70
2022-08-17T23:53:34.045Z,91.50
2022-08-17T23:56:04.605Z,91.70
2022-08-17T23:58:39.176Z,91.60
